Tolovana Park, Oregon
Current Conditions -  °F | °C
As of 5:55 AM on Thursday 27 Nov 2014 (Local Time) from KAST Reporting Station
Overcast Overcast  
Wind Chill: 57°   Ceiling: 600
Heat Index: 57°   Visibility: 9mi
Dew Point: 55°   Wind: 12mph
Humidity: 93%   Direction: 210°SSW
Pressure: 29.88"   Gusts: 25mph
Location:  45.87°N, 123.96°W
Report Text: KAST 271355Z AUTO 21010G22KT 9SM OVC006 14/13 A2988 RMK AO2 RAE17 SLP119 P0000 T01390128
Loading
Personal Weather Stations






























Interactive Weather Map New forecast layout! Learn more

10-Day Weather Forecast

Advertisements
Track Severe Weather on mobile